createdAt,value
2016-05-16T00:00:36.475Z,0
2016-05-16T00:01:36.603Z,0
2016-05-16T00:02:36.559Z,0
2016-05-16T00:03:36.561Z,0
2016-05-16T00:04:36.345Z,0
2016-05-16T00:05:36.456Z,0
2016-05-16T00:06:36.413Z,0
2016-05-16T00:07:36.384Z,0
2016-05-16T00:08:36.340Z,0
2016-05-16T00:09:36.311Z,0
2016-05-16T00:10:36.267Z,0
2016-05-16T00:11:36.238Z,0
2016-05-16T00:12:36.053Z,0
2016-05-16T00:13:36.151Z,0
2016-05-16T00:14:36.122Z,0
2016-05-16T00:15:36.078Z,0
2016-05-16T00:16:36.049Z,0
2016-05-16T00:17:35.864Z,0
2016-05-16T00:18:35.976Z,0
2016-05-16T00:19:35.947Z,0
2016-05-16T00:20:35.888Z,0
2016-05-16T00:21:35.875Z,0
2016-05-16T00:22:35.846Z,0
2016-05-16T00:23:35.802Z,0
2016-05-16T00:24:35.727Z,0
2016-05-16T00:25:35.714Z,0
2016-05-16T00:26:35.685Z,0
2016-05-16T00:27:35.657Z,0
2016-05-16T00:28:35.629Z,0
2016-05-16T00:29:35.568Z,0
2016-05-16T00:30:35.384Z,0
2016-05-16T00:31:35.511Z,0
2016-05-16T00:32:35.468Z,0
2016-05-16T00:33:35.439Z,0
2016-05-16T00:34:35.395Z,0
2016-05-16T00:35:35.350Z,0
2016-05-16T00:36:35.165Z,0
2016-05-16T00:37:35.293Z,0
2016-05-16T00:38:35.092Z,0
2016-05-16T00:39:35.220Z,0
2016-05-16T00:40:35.192Z,0
2016-05-16T00:41:35.132Z,0
2016-05-16T00:42:35.119Z,0
2016-05-16T00:43:35.075Z,0
2016-05-16T00:44:34.889Z,0
2016-05-16T00:45:34.846Z,0
2016-05-16T00:46:34.958Z,0
2016-05-16T00:47:34.914Z,0
2016-05-16T00:48:34.900Z,0
2016-05-16T00:49:34.857Z,0
2016-05-16T00:50:34.828Z,0
2016-05-16T00:51:34.627Z,0
2016-05-16T00:52:34.740Z,0
2016-05-16T00:53:34.711Z,0
2016-05-16T00:54:34.667Z,0
2016-05-16T00:55:34.638Z,0
2016-05-16T00:56:34.594Z,0
2016-05-16T00:57:34.597Z,0
2016-05-16T00:58:34.538Z,0
2016-05-16T00:59:34.336Z,0
2016-05-16T01:00:34.464Z,0
2016-05-16T01:01:34.420Z,0
2016-05-16T01:02:34.392Z,0
2016-05-16T01:03:34.332Z,0
2016-05-16T01:04:34.147Z,0
2016-05-16T01:05:35.009Z,0
2016-05-16T01:06:34.073Z,0
2016-05-16T01:07:34.187Z,0
2016-05-16T01:08:34.158Z,0
2016-05-16T01:09:34.114Z,0
2016-05-16T01:10:34.085Z,0
2016-05-16T01:11:34.056Z,0
2016-05-16T01:12:34.028Z,0
2016-05-16T01:13:34.047Z,0
2016-05-16T01:14:33.800Z,0
2016-05-16T01:15:33.989Z,0
2016-05-16T01:16:33.866Z,0
2016-05-16T01:17:33.822Z,0
2016-05-16T01:18:33.716Z,0
2016-05-16T01:19:33.750Z,0
2016-05-16T01:20:33.566Z,0
2016-05-16T01:21:33.677Z,0
2016-05-16T01:22:33.663Z,0
2016-05-16T01:23:33.620Z,0
2016-05-16T01:24:33.577Z,0
2016-05-16T01:25:33.375Z,0
2016-05-16T01:26:33.362Z,0
2016-05-16T01:27:33.460Z,0
2016-05-16T01:28:33.492Z,0
2016-05-16T01:29:33.402Z,0
2016-05-16T01:30:33.357Z,0
2016-05-16T01:31:33.329Z,0
2016-05-16T01:32:33.129Z,0
2016-05-16T01:33:33.257Z,0
2016-05-16T01:34:33.212Z,0
2016-05-16T01:35:33.714Z,0
2016-05-16T01:36:33.154Z,0
2016-05-16T01:37:33.112Z,0
2016-05-16T01:38:32.910Z,0
2016-05-16T01:39:33.006Z,0
2016-05-16T01:40:32.979Z,0
2016-05-16T01:41:32.793Z,0
2016-05-16T01:42:32.936Z,0
2016-05-16T01:43:32.893Z,0
2016-05-16T01:44:33.005Z,0
2016-05-16T01:45:32.803Z,0
2016-05-16T01:46:32.761Z,0
2016-05-16T01:47:32.731Z,0
2016-05-16T01:48:32.686Z,0
2016-05-16T01:49:32.675Z,0
2016-05-16T01:50:32.630Z,0
2016-05-16T01:51:32.632Z,0
2016-05-16T01:52:32.644Z,0
2016-05-16T01:53:32.469Z,0
2016-05-16T01:54:32.636Z,0
2016-05-16T01:55:32.633Z,0
2016-05-16T01:56:32.625Z,0
2016-05-16T01:57:32.595Z,0
2016-05-16T01:58:32.581Z,0
2016-05-16T01:59:32.536Z,0
2016-05-16T02:00:32.522Z,0
2016-05-16T02:01:32.500Z,0
2016-05-16T02:02:32.322Z,0
2016-05-16T02:03:32.439Z,0
2016-05-16T02:04:32.416Z,0
2016-05-16T02:05:32.862Z,0
2016-05-16T02:06:32.351Z,0
2016-05-16T02:07:32.325Z,0
2016-05-16T02:08:32.282Z,0
2016-05-16T02:09:32.240Z,0
2016-05-16T02:10:32.198Z,0
2016-05-16T02:11:32.171Z,0
2016-05-16T02:12:32.143Z,0
2016-05-16T02:13:32.099Z,0
2016-05-16T02:14:32.103Z,0
2016-05-16T02:15:31.871Z,0
2016-05-16T02:16:31.984Z,0
2016-05-16T02:17:31.954Z,0
2016-05-16T02:18:31.927Z,0
2016-05-16T02:19:31.867Z,0
2016-05-16T02:20:31.712Z,0
2016-05-16T02:21:31.810Z,0
2016-05-16T02:22:31.859Z,0
2016-05-16T02:23:31.736Z,0
2016-05-16T02:24:31.693Z,0
2016-05-16T02:25:31.664Z,0
2016-05-16T02:26:31.464Z,0
2016-05-16T02:27:31.591Z,0
2016-05-16T02:28:31.563Z,0
2016-05-16T02:29:31.534Z,0
2016-05-16T02:30:31.319Z,0
2016-05-16T02:31:31.430Z,0
2016-05-16T02:32:31.402Z,0
2016-05-16T02:33:31.357Z,0
2016-05-16T02:34:31.314Z,0
2016-05-16T02:35:31.300Z,0
2016-05-16T02:36:31.131Z,0
2016-05-16T02:37:31.227Z,0
2016-05-16T02:38:31.199Z,0
2016-05-16T02:39:31.155Z,0
2016-05-16T02:40:31.111Z,0
2016-05-16T02:41:31.066Z,0
2016-05-16T02:42:31.037Z,0
2016-05-16T02:43:30.993Z,0
2016-05-16T02:44:30.965Z,0
2016-05-16T02:45:30.921Z,0
2016-05-16T02:46:30.876Z,0
2016-05-16T02:47:30.849Z,0
2016-05-16T02:48:30.835Z,0
2016-05-16T02:49:30.776Z,0
2016-05-16T02:50:30.809Z,0
2016-05-16T02:51:30.703Z,0
2016-05-16T02:52:30.658Z,0
2016-05-16T02:53:30.631Z,0
2016-05-16T02:54:30.601Z,0
2016-05-16T02:55:30.557Z,0
2016-05-16T02:56:30.528Z,0
2016-05-16T02:57:30.328Z,0
2016-05-16T02:58:30.456Z,0
2016-05-16T02:59:30.256Z,0
2016-05-16T03:00:30.367Z,0
2016-05-16T03:01:30.339Z,0
2016-05-16T03:02:30.311Z,0
2016-05-16T03:03:30.266Z,0
2016-05-16T03:04:30.222Z,0
2016-05-16T03:05:30.677Z,0
2016-05-16T03:06:30.149Z,0
2016-05-16T03:07:30.105Z,0
2016-05-16T03:08:30.061Z,0
2016-05-16T03:09:30.032Z,0
2016-05-16T03:10:30.004Z,0
2016-05-16T03:11:29.960Z,0
2016-05-16T03:12:29.932Z,0
2016-05-16T03:13:29.887Z,0
2016-05-16T03:14:29.843Z,0
2016-05-16T03:15:29.814Z,4
2016-05-16T03:16:29.629Z,4
2016-05-16T03:17:29.585Z,4
2016-05-16T03:18:29.698Z,0
2016-05-16T03:19:29.543Z,4
2016-05-16T03:20:29.906Z,4
2016-05-16T03:21:29.596Z,4
2016-05-16T03:22:29.567Z,4
2016-05-16T03:23:29.507Z,4
2016-05-16T03:24:29.479Z,8
2016-05-16T03:25:29.451Z,12
2016-05-16T03:26:29.406Z,12
2016-05-16T03:27:29.362Z,16
2016-05-16T03:28:29.333Z,20
2016-05-16T03:29:29.305Z,24
2016-05-16T03:30:29.261Z,28
2016-05-16T03:31:29.061Z,36
2016-05-16T03:32:29.188Z,44
2016-05-16T03:33:29.144Z,56
2016-05-16T03:34:29.116Z,68
2016-05-16T03:35:29.086Z,80
2016-05-16T03:36:28.886Z,96
2016-05-16T03:37:28.999Z,112
2016-05-16T03:38:28.969Z,128
2016-05-16T03:39:28.957Z,148
2016-05-16T03:40:28.897Z,172
2016-05-16T03:41:28.696Z,192
2016-05-16T03:42:28.824Z,212
2016-05-16T03:43:28.624Z,240
2016-05-16T03:44:28.752Z,260
2016-05-16T03:45:28.566Z,288
2016-05-16T03:46:28.507Z,316
2016-05-16T03:47:28.619Z,344
2016-05-16T03:48:28.434Z,368
2016-05-16T03:49:28.609Z,396
2016-05-16T03:50:28.924Z,428
2016-05-16T03:51:28.489Z,464
2016-05-16T03:52:28.460Z,496
2016-05-16T03:53:28.245Z,524
2016-05-16T03:54:28.387Z,560
2016-05-16T03:55:28.328Z,600
2016-05-16T03:56:28.143Z,632
2016-05-16T03:57:28.099Z,672
2016-05-16T03:58:28.070Z,732
2016-05-16T03:59:28.198Z,792
2016-05-16T04:00:28.138Z,840
2016-05-16T04:01:27.953Z,860
2016-05-16T04:02:28.081Z,860
2016-05-16T04:03:28.037Z,864
2016-05-16T04:04:27.992Z,900
2016-05-16T04:05:42.089Z,960
2016-05-16T04:06:27.936Z,984
2016-05-16T04:07:27.892Z,1016
2016-05-16T04:09:27.803Z,1040
2016-05-16T04:10:27.774Z,1016
2016-05-16T04:11:27.730Z,1044
2016-05-16T04:12:27.733Z,1156
2016-05-16T04:13:27.673Z,1316
2016-05-16T04:14:27.816Z,1420
2016-05-16T04:15:27.585Z,1544
2016-05-16T04:16:27.385Z,1636
2016-05-16T04:17:27.512Z,1708
2016-05-16T04:18:27.468Z,1756
2016-05-16T04:19:27.439Z,1804
2016-05-16T04:20:27.098Z,1836
2016-05-16T04:21:27.382Z,1872
2016-05-16T04:22:27.323Z,1840
2016-05-16T04:23:27.293Z,1704
2016-05-16T04:24:27.250Z,1620
2016-05-16T04:25:27.206Z,1636
2016-05-16T04:26:27.020Z,1688
2016-05-16T04:27:27.148Z,1688
2016-05-16T04:28:27.120Z,1664
2016-05-16T04:29:27.076Z,1620
2016-05-16T04:30:27.016Z,1592
2016-05-16T04:31:26.987Z,1572
2016-05-16T04:32:26.786Z,1540
2016-05-16T04:33:26.774Z,1500
2016-05-16T04:34:26.886Z,1532
2016-05-16T04:35:26.561Z,1624
2016-05-16T04:36:26.813Z,1804
2016-05-16T04:37:26.769Z,2052
2016-05-16T04:38:26.569Z,2348
2016-05-16T04:39:26.697Z,2504
2016-05-16T04:40:26.668Z,2568
2016-05-16T04:41:26.467Z,2576
2016-05-16T04:42:26.470Z,2544
2016-05-16T04:43:26.394Z,2544
2016-05-16T04:44:26.507Z,2552
2016-05-16T04:45:26.462Z,2572
2016-05-16T04:46:26.121Z,2684
2016-05-16T04:47:26.405Z,2832
2016-05-16T04:48:26.361Z,3000
2016-05-16T04:49:26.317Z,3120
2016-05-16T04:50:25.991Z,3252
2016-05-16T04:51:26.243Z,3252
2016-05-16T04:52:26.216Z,3104
2016-05-16T04:53:26.015Z,2992
2016-05-16T04:54:26.127Z,2892
2016-05-16T04:55:25.942Z,2668
2016-05-16T04:56:25.898Z,2504
2016-05-16T04:57:26.135Z,2468
2016-05-16T04:58:26.012Z,2484
2016-05-16T04:59:25.937Z,2492
2016-05-16T05:00:25.925Z,2484
2016-05-16T05:01:25.975Z,2560
2016-05-16T05:02:25.852Z,2636
2016-05-16T05:03:25.808Z,2904
2016-05-16T05:04:25.763Z,3252
2016-05-16T05:05:26.313Z,3472
2016-05-16T05:06:25.706Z,3484
2016-05-16T05:07:25.506Z,3364
2016-05-16T05:08:25.618Z,3288
2016-05-16T05:09:25.292Z,3248
2016-05-16T05:10:25.764Z,3068
2016-05-16T05:11:25.360Z,2956
2016-05-16T05:12:25.504Z,2916
2016-05-16T05:13:25.288Z,2844
2016-05-16T05:14:25.416Z,2860
2016-05-16T05:15:25.231Z,3008
2016-05-16T05:16:25.327Z,3152
2016-05-16T05:17:25.142Z,3276
2016-05-16T05:18:25.285Z,3444
2016-05-16T05:19:25.226Z,3508
2016-05-16T05:20:25.057Z,3564
2016-05-16T05:21:24.996Z,3524
2016-05-16T05:22:25.515Z,3432
2016-05-16T05:23:25.079Z,3360
2016-05-16T05:24:25.052Z,3384
2016-05-16T05:25:25.007Z,3420
2016-05-16T05:26:24.979Z,3348
2016-05-16T05:27:24.950Z,3416
2016-05-16T05:28:24.890Z,3720
2016-05-16T05:29:24.878Z,3924
2016-05-16T05:30:24.677Z,4144
2016-05-16T05:31:24.789Z,4348
2016-05-16T05:32:24.604Z,4416
2016-05-16T05:33:24.732Z,4424
2016-05-16T05:34:24.689Z,4420
2016-05-16T05:35:24.737Z,4340
2016-05-16T05:36:24.458Z,4420
2016-05-16T05:37:24.431Z,4320
2016-05-16T05:38:24.558Z,4076
2016-05-16T05:39:24.514Z,3848
2016-05-16T05:40:24.485Z,3756
2016-05-16T05:41:24.441Z,3676
2016-05-16T05:42:24.459Z,3532
2016-05-16T05:43:24.384Z,3448
2016-05-16T05:44:24.183Z,3372
2016-05-16T05:45:24.296Z,3360
2016-05-16T05:46:24.266Z,3272
2016-05-16T05:47:24.224Z,3172
2016-05-16T05:48:24.193Z,3140
2016-05-16T05:49:24.150Z,3100
2016-05-16T05:50:24.012Z,3144
2016-05-16T05:51:24.093Z,3352
2016-05-16T05:52:23.892Z,3464
2016-05-16T05:53:24.021Z,3488
2016-05-16T05:54:23.976Z,3548
2016-05-16T05:55:23.948Z,3572
2016-05-16T05:56:23.763Z,3592
2016-05-16T05:57:23.718Z,3704
2016-05-16T05:58:23.846Z,3776
2016-05-16T05:59:23.801Z,3716
2016-05-16T06:00:23.601Z,3684
2016-05-16T06:01:23.745Z,3868
2016-05-16T06:02:23.701Z,4304
2016-05-16T06:03:23.672Z,4712
2016-05-16T06:04:23.644Z,5000
2016-05-16T06:05:23.678Z,5160
2016-05-16T06:06:23.399Z,5248
2016-05-16T06:07:23.370Z,5348
2016-05-16T06:08:23.342Z,5456
2016-05-16T06:09:23.438Z,5652
2016-05-16T06:10:23.410Z,5860
2016-05-16T06:11:23.380Z,5972
2016-05-16T06:12:23.337Z,6220
2016-05-16T06:13:23.308Z,6628
2016-05-16T06:14:23.264Z,7136
2016-05-16T06:15:23.079Z,7628
2016-05-16T06:16:23.191Z,7932
2016-05-16T06:17:23.021Z,8044
2016-05-16T06:18:23.134Z,8020
2016-05-16T06:19:22.935Z,7872
2016-05-16T06:20:23.358Z,7900
2016-05-16T06:21:23.049Z,7976
2016-05-16T06:22:23.004Z,8048
2016-05-16T06:23:22.960Z,8324
2016-05-16T06:24:22.760Z,8156
2016-05-16T06:25:22.903Z,8032
2016-05-16T06:26:22.703Z,7700
2016-05-16T06:27:22.674Z,7412
2016-05-16T06:28:22.786Z,7288
2016-05-16T06:29:22.773Z,7316
2016-05-16T06:30:22.714Z,7328
2016-05-16T06:31:22.684Z,7328
2016-05-16T06:32:22.641Z,7324
2016-05-16T06:33:22.611Z,7472
2016-05-16T06:34:22.568Z,7452
2016-05-16T06:35:22.556Z,7256
2016-05-16T06:36:22.511Z,7168
2016-05-16T06:37:22.483Z,6956
2016-05-16T06:38:22.438Z,6688
2016-05-16T06:39:22.409Z,6736
2016-05-16T06:40:22.225Z,7100
2016-05-16T06:41:22.337Z,7392
2016-05-16T06:42:22.308Z,7576
2016-05-16T06:43:22.280Z,7840
2016-05-16T06:44:22.251Z,8156
2016-05-16T06:45:22.207Z,8356
2016-05-16T06:46:22.178Z,8400
2016-05-16T06:47:21.978Z,8248
2016-05-16T06:48:22.106Z,7968
2016-05-16T06:49:22.077Z,7644
2016-05-16T06:50:22.455Z,7212
2016-05-16T06:51:21.692Z,6804
2016-05-16T06:52:21.976Z,6588
2016-05-16T06:53:21.932Z,6664
2016-05-16T06:54:21.903Z,7032
2016-05-16T06:55:21.562Z,7252
2016-05-16T06:56:21.830Z,7248
2016-05-16T06:57:21.802Z,7768
2016-05-16T06:58:21.757Z,8480
2016-05-16T06:59:22.698Z,8836
2016-05-16T07:00:21.715Z,8676
2016-05-16T07:01:21.547Z,8228
2016-05-16T07:02:22.534Z,7812
2016-05-16T07:03:21.598Z,7256
2016-05-16T07:04:21.431Z,6752
2016-05-16T07:05:21.604Z,6392
2016-05-16T07:06:21.497Z,6096
2016-05-16T07:07:21.470Z,6004
2016-05-16T07:08:21.269Z,6064
2016-05-16T07:09:21.272Z,6376
2016-05-16T07:10:21.367Z,6804
2016-05-16T07:11:21.339Z,7468
2016-05-16T07:12:21.295Z,8072
2016-05-16T07:13:21.111Z,8496
2016-05-16T07:14:21.253Z,8796
2016-05-16T07:15:21.194Z,9096
2016-05-16T07:16:21.213Z,9104
2016-05-16T07:17:21.136Z,9376
2016-05-16T07:18:21.093Z,9784
2016-05-16T07:19:21.079Z,10236
2016-05-16T07:20:20.738Z,10952
2016-05-16T07:21:21.022Z,11464
2016-05-16T07:22:20.963Z,11908
2016-05-16T07:23:20.935Z,12572
2016-05-16T07:24:20.890Z,12524
2016-05-16T07:25:20.924Z,12256
2016-05-16T07:26:20.832Z,11448
2016-05-16T07:27:20.788Z,10556
2016-05-16T07:28:20.760Z,9752
2016-05-16T07:29:20.731Z,9080
2016-05-16T07:30:20.751Z,8560
2016-05-16T07:31:20.518Z,8448
2016-05-16T07:32:20.645Z,8796
2016-05-16T07:33:20.601Z,8812
2016-05-16T07:34:20.557Z,8644
2016-05-16T07:35:20.498Z,8428
2016-05-16T07:36:20.500Z,8864
2016-05-16T07:37:20.519Z,9080
2016-05-16T07:38:20.428Z,8988
2016-05-16T07:39:20.431Z,8988
2016-05-16T07:40:20.371Z,9692
2016-05-16T07:41:20.325Z,11520
2016-05-16T07:42:20.345Z,12380
2016-05-16T07:43:20.269Z,11860
2016-05-16T07:44:20.241Z,10708
2016-05-16T07:45:20.196Z,9640
2016-05-16T07:46:20.214Z,8740
2016-05-16T07:47:20.154Z,8436
2016-05-16T07:48:20.094Z,8224
2016-05-16T07:49:19.911Z,7920
2016-05-16T07:50:20.038Z,7736
2016-05-16T07:51:20.010Z,7884
2016-05-16T07:52:19.668Z,8228
2016-05-16T07:53:19.968Z,8440
2016-05-16T07:54:19.908Z,9004
2016-05-16T07:55:19.863Z,9948
2016-05-16T07:56:19.835Z,11540
2016-05-16T07:57:19.806Z,12000
2016-05-16T07:58:19.794Z,11700
2016-05-16T07:59:19.610Z,11196
2016-05-16T08:00:19.721Z,10692
2016-05-16T08:01:19.521Z,9428
2016-05-16T08:02:19.679Z,7884
2016-05-16T08:03:19.620Z,6916
2016-05-16T08:04:19.622Z,6460
2016-05-16T08:05:19.578Z,6260
2016-05-16T08:06:19.956Z,6284
2016-05-16T08:07:19.490Z,6344
2016-05-16T08:08:19.461Z,6564
2016-05-16T08:09:19.417Z,6648
2016-05-16T08:10:19.389Z,6728
2016-05-16T08:11:19.188Z,6892
2016-05-16T08:12:19.331Z,6692
2016-05-16T08:13:19.286Z,6492
2016-05-16T08:14:19.259Z,6184
2016-05-16T08:15:19.059Z,5640
2016-05-16T08:16:19.202Z,5444
2016-05-16T08:17:19.158Z,5148
2016-05-16T08:18:19.144Z,5268
2016-05-16T08:19:32.960Z,5376
2016-05-16T08:20:18.916Z,5496
2016-05-16T08:21:43.699Z,6112
2016-05-16T08:22:18.999Z,6620
2016-05-16T08:23:19.549Z,7404
2016-05-16T08:24:18.927Z,7672
2016-05-16T08:25:18.898Z,7528
2016-05-16T08:26:18.557Z,7612
2016-05-16T08:27:18.824Z,7872
2016-05-16T08:28:18.796Z,7896
2016-05-16T08:29:18.626Z,7524
2016-05-16T08:30:18.598Z,7140
2016-05-16T08:31:18.883Z,7284
2016-05-16T08:32:21.167Z,8312
2016-05-16T08:33:18.623Z,9528
2016-05-16T08:34:18.593Z,10508
2016-05-16T08:35:18.268Z,11552
2016-05-16T08:36:18.381Z,12516
2016-05-16T08:37:18.570Z,13528
2016-05-16T08:38:18.464Z,14384
2016-05-16T08:39:18.467Z,15056
2016-05-16T08:40:18.391Z,15056
2016-05-16T08:41:18.362Z,14080
2016-05-16T08:42:18.194Z,13256
2016-05-16T08:43:18.289Z,12256
2016-05-16T08:44:18.262Z,11208
2016-05-16T08:45:18.232Z,9956
2016-05-16T08:46:18.204Z,8956
2016-05-16T08:47:18.036Z,9044
2016-05-16T08:48:18.147Z,8916
2016-05-16T08:49:18.119Z,8928
2016-05-16T08:50:17.965Z,8976
2016-05-16T08:51:18.171Z,8476
2016-05-16T08:52:18.017Z,7228
2016-05-16T08:53:17.832Z,6664
2016-05-16T08:54:17.944Z,6480
2016-05-16T08:55:17.916Z,6280
2016-05-16T08:56:17.732Z,6176
2016-05-16T08:57:17.859Z,5760
2016-05-16T08:58:17.830Z,5508
2016-05-16T08:59:17.785Z,5324
2016-05-16T09:00:17.773Z,6004
2016-05-16T09:01:17.744Z,6736
2016-05-16T09:02:17.684Z,6528
2016-05-16T09:03:17.340Z,5812
2016-05-16T09:04:17.659Z,5848
2016-05-16T09:05:17.599Z,6136
2016-05-16T09:06:17.552Z,5944
2016-05-16T09:07:17.523Z,6176
2016-05-16T09:08:17.495Z,6388
2016-05-16T09:09:17.467Z,6092
2016-05-16T09:10:17.266Z,5688
2016-05-16T09:11:17.409Z,5548
2016-05-16T09:12:17.365Z,5984
2016-05-16T09:13:17.353Z,5844
2016-05-16T09:14:17.308Z,5856
2016-05-16T09:15:17.248Z,5868
2016-05-16T09:16:17.219Z,5608
2016-05-16T09:17:17.191Z,5824
2016-05-16T09:18:17.162Z,6152
2016-05-16T09:19:17.133Z,6872
2016-05-16T09:20:17.090Z,7500
2016-05-16T09:21:17.514Z,8468
2016-05-16T09:22:17.220Z,10036
2016-05-16T09:23:17.066Z,10612
2016-05-16T09:24:16.960Z,10612
2016-05-16T09:25:16.932Z,10100
2016-05-16T09:26:16.903Z,9288
2016-05-16T09:27:16.858Z,8616
2016-05-16T09:28:16.830Z,8296
2016-05-16T09:29:16.802Z,8128
2016-05-16T09:30:16.757Z,8008
2016-05-16T09:31:16.729Z,8044
2016-05-16T09:32:16.684Z,8072
2016-05-16T09:33:16.656Z,8492
2016-05-16T09:34:16.627Z,11108
2016-05-16T09:35:16.630Z,13692
2016-05-16T09:36:17.165Z,15908
2016-05-16T09:37:16.370Z,15216
2016-05-16T09:38:16.498Z,13884
2016-05-16T09:39:16.453Z,13548
2016-05-16T09:40:16.440Z,13844
2016-05-16T09:41:16.396Z,15420
2016-05-16T09:42:16.352Z,17760
2016-05-16T09:43:16.167Z,19520
2016-05-16T09:44:16.983Z,21248
2016-05-16T09:45:17.064Z,23968
2016-05-16T09:46:17.269Z,23552
2016-05-16T09:47:17.194Z,23264
2016-05-16T09:48:16.961Z,26496
2016-05-16T09:49:16.308Z,40960
2016-05-16T09:50:17.358Z,46272
2016-05-16T09:51:16.969Z,54304
2016-05-16T09:52:16.833Z,47680
2016-05-16T09:53:16.819Z,39232
2016-05-16T09:54:16.010Z,39232
2016-05-16T09:55:16.762Z,33568
2016-05-16T09:56:16.749Z,26528
2016-05-16T09:57:16.674Z,23968
2016-05-16T09:58:16.349Z,27232
2016-05-16T09:59:30.885Z,29760
2016-05-16T10:00:16.838Z,36576
2016-05-16T10:01:16.575Z,34304
2016-05-16T10:02:15.906Z,30592
2016-05-16T10:03:16.534Z,28256
2016-05-16T10:04:16.707Z,28672
2016-05-16T10:05:16.445Z,29184
2016-05-16T10:06:16.495Z,34464
2016-05-16T10:07:16.232Z,38624
2016-05-16T10:08:16.391Z,36288
2016-05-16T10:09:16.362Z,42656
2016-05-16T10:10:16.303Z,36576
2016-05-16T10:11:16.273Z,31232
2016-05-16T10:12:15.651Z,34944
2016-05-16T10:13:16.076Z,33408
2016-05-16T10:14:16.298Z,34016
2016-05-16T10:15:16.067Z,35072
2016-05-16T10:16:16.131Z,30208
2016-05-16T10:17:16.134Z,35840
2016-05-16T10:19:16.077Z,39808
2016-05-16T10:20:16.032Z,28832
2016-05-16T10:21:16.458Z,31296
2016-05-16T10:22:15.975Z,26528
2016-05-16T10:23:15.322Z,25344
2016-05-16T10:24:15.919Z,32640
2016-05-16T10:25:15.889Z,29440
2016-05-16T10:26:15.892Z,28640
2016-05-16T10:27:15.832Z,28768
2016-05-16T10:28:16.804Z,26912
2016-05-16T10:29:15.791Z,24000
2016-05-16T10:30:15.747Z,22688
2016-05-16T10:31:15.735Z,21216
2016-05-16T10:32:15.690Z,26144
2016-05-16T10:33:15.896Z,25184
2016-05-16T10:34:29.901Z,22368
2016-05-16T10:35:15.948Z,22784
2016-05-16T10:36:14.965Z,26496
2016-05-16T10:37:15.454Z,37536
2016-05-16T10:38:15.534Z,38688
2016-05-16T10:39:15.739Z,28032
2016-05-16T10:40:15.680Z,28256
2016-05-16T10:41:15.449Z,28832
2016-05-16T10:42:15.639Z,26240
2016-05-16T10:43:15.267Z,24896
2016-05-16T10:44:15.362Z,23136
2016-05-16T10:45:15.334Z,24928
2016-05-16T10:46:15.305Z,30944
2016-05-16T10:47:15.292Z,30368
2016-05-16T10:48:15.295Z,33248
2016-05-16T10:49:15.236Z,34656
2016-05-16T10:50:29.319Z,32128
2016-05-16T10:51:15.256Z,27648
2016-05-16T10:52:14.336Z,27456
2016-05-16T10:53:13.840Z,26688
2016-05-16T10:54:15.108Z,26112
2016-05-16T10:55:15.111Z,26368
2016-05-16T10:56:15.036Z,24896
2016-05-16T10:57:14.991Z,24992
2016-05-16T10:58:14.378Z,27328
2016-05-16T10:59:15.115Z,27040
2016-05-16T11:00:15.149Z,24896
2016-05-16T11:01:15.261Z,23296
2016-05-16T11:02:15.326Z,23104
2016-05-16T11:03:15.319Z,22688
2016-05-16T11:04:14.917Z,22752
2016-05-16T11:05:14.936Z,20864
2016-05-16T11:06:16.815Z,18144
2016-05-16T11:07:15.038Z,16608
2016-05-16T11:08:15.719Z,15872
2016-05-16T11:09:15.025Z,14576
2016-05-16T11:10:14.830Z,13652
2016-05-16T11:11:14.948Z,13476
2016-05-16T11:12:14.770Z,11508
2016-05-16T11:13:14.900Z,10012
2016-05-16T11:14:14.247Z,8660
2016-05-16T11:15:14.066Z,7592
2016-05-16T11:16:13.945Z,7180
2016-05-16T11:17:14.013Z,7340
2016-05-16T11:18:13.970Z,7828
2016-05-16T11:19:13.941Z,9304
2016-05-16T11:20:14.118Z,11264
2016-05-16T11:21:13.730Z,14052
2016-05-16T11:22:13.859Z,14808
2016-05-16T11:23:13.675Z,15360
2016-05-16T11:24:13.818Z,14180
2016-05-16T11:25:13.759Z,14408
2016-05-16T11:26:13.839Z,15440
2016-05-16T11:27:13.749Z,17440
2016-05-16T11:28:14.517Z,18016
2016-05-16T11:29:13.911Z,17760
2016-05-16T11:30:14.444Z,18368
2016-05-16T11:31:14.276Z,19680
2016-05-16T11:32:14.356Z,19296
2016-05-16T11:33:14.312Z,20768
2016-05-16T11:34:14.128Z,21280
2016-05-16T11:35:14.302Z,21632
2016-05-16T11:36:14.477Z,22048
2016-05-16T11:37:14.197Z,20352
2016-05-16T11:38:14.169Z,18560
2016-05-16T11:39:14.141Z,17824
2016-05-16T11:40:28.396Z,16864
2016-05-16T11:41:14.333Z,15968
2016-05-16T11:42:14.055Z,15500
2016-05-16T11:43:13.276Z,15872
2016-05-16T11:45:14.173Z,19552
2016-05-16T11:46:13.925Z,21440
2016-05-16T11:47:14.538Z,21984
2016-05-16T11:48:13.712Z,21472
2016-05-16T11:49:13.715Z,21632
2016-05-16T11:50:13.812Z,22144
2016-05-16T11:51:14.314Z,22112
2016-05-16T11:52:13.770Z,21888
2016-05-16T11:53:13.115Z,21984
2016-05-16T11:54:13.681Z,22304
2016-05-16T11:55:13.668Z,22240
2016-05-16T11:56:13.484Z,21824
2016-05-16T11:57:12.970Z,21568
2016-05-16T11:58:12.942Z,21408
2016-05-16T11:59:13.569Z,22048
2016-05-16T12:00:13.526Z,22208
2016-05-16T12:01:13.466Z,22496
2016-05-16T12:02:13.515Z,22944
2016-05-16T12:03:13.284Z,24032
2016-05-16T12:04:13.411Z,25088
2016-05-16T12:05:13.367Z,25536
2016-05-16T12:06:12.572Z,25056
2016-05-16T12:07:13.513Z,24608
2016-05-16T12:08:13.281Z,23680
2016-05-16T12:09:13.488Z,22304
2016-05-16T12:10:13.271Z,20960
2016-05-16T12:11:12.555Z,20992
2016-05-16T12:12:13.199Z,21024
2016-05-16T12:13:12.998Z,20512
2016-05-16T12:14:13.344Z,20000
2016-05-16T12:15:13.300Z,18368
2016-05-16T12:16:13.053Z,17184
2016-05-16T12:17:12.399Z,18336
2016-05-16T12:18:12.996Z,18688
2016-05-16T12:19:13.170Z,18560
2016-05-16T12:20:12.938Z,16960
2016-05-16T12:21:12.831Z,16896
2016-05-16T12:22:12.881Z,17440
2016-05-16T12:23:12.713Z,19072
2016-05-16T12:24:12.824Z,20640
2016-05-16T12:25:12.640Z,20544
2016-05-16T12:26:12.767Z,20416
2016-05-16T12:27:12.614Z,19616
2016-05-16T12:28:12.773Z,19584
2016-05-16T12:29:12.681Z,19712
2016-05-16T12:30:12.653Z,18944
2016-05-16T12:31:12.625Z,19712
2016-05-16T12:32:11.956Z,18912
2016-05-16T12:33:12.583Z,18048
2016-05-16T12:34:11.945Z,18944
2016-05-16T12:35:11.853Z,18688
2016-05-16T12:36:12.497Z,18368
2016-05-16T12:37:12.437Z,18400
2016-05-16T12:38:12.644Z,17376
2016-05-16T12:39:12.412Z,16488
2016-05-16T12:40:26.652Z,15340
2016-05-16T12:41:12.355Z,14596
2016-05-16T12:42:12.294Z,15244
2016-05-16T12:43:12.282Z,16380
2016-05-16T12:44:12.081Z,16088
2016-05-16T12:45:11.427Z,15312
2016-05-16T12:46:11.555Z,14356
2016-05-16T12:47:11.527Z,14388
2016-05-16T12:48:12.123Z,14580
2016-05-16T12:49:12.329Z,15416
2016-05-16T12:50:12.082Z,15372
2016-05-16T12:51:11.943Z,15140
2016-05-16T12:52:12.025Z,13328
2016-05-16T12:53:11.980Z,10900
2016-05-16T12:54:12.187Z,9804
2016-05-16T12:55:12.127Z,10400
2016-05-16T12:56:12.098Z,12104
2016-05-16T12:57:11.225Z,13420
2016-05-16T12:58:11.822Z,14972
2016-05-16T12:59:11.809Z,16896
2016-05-16T13:00:11.625Z,18816
2016-05-16T13:01:11.737Z,19904
2016-05-16T13:02:11.692Z,19968
2016-05-16T13:03:11.679Z,19456
2016-05-16T13:04:11.650Z,19552
2016-05-16T13:05:11.309Z,20192
2016-05-16T13:06:11.672Z,20992
2016-05-16T13:07:11.534Z,21568
2016-05-16T13:08:11.755Z,21120
2016-05-16T13:09:11.492Z,19808
2016-05-16T13:10:11.058Z,17088
2016-05-16T13:11:11.435Z,14216
2016-05-16T13:12:10.782Z,13316
2016-05-16T13:13:11.612Z,12988
2016-05-16T13:14:11.068Z,13000
2016-05-16T13:15:11.415Z,13148
2016-05-16T13:16:11.277Z,12992
2016-05-16T13:17:11.483Z,13208
2016-05-16T13:18:11.282Z,13648
2016-05-16T13:19:11.051Z,11928
2016-05-16T13:20:10.349Z,9292
2016-05-16T13:21:10.306Z,7092
2016-05-16T13:22:24.309Z,6228
2016-05-16T13:23:10.296Z,6368
2016-05-16T13:24:10.657Z,6488
2016-05-16T13:25:10.067Z,6708
2016-05-16T13:26:10.195Z,6600
2016-05-16T13:27:10.150Z,6448
2016-05-16T13:28:10.121Z,6188
2016-05-16T13:29:10.108Z,6112
2016-05-16T13:30:10.065Z,6384
2016-05-16T13:31:10.036Z,7400
2016-05-16T13:32:09.851Z,8484
2016-05-16T13:33:09.822Z,7628
2016-05-16T13:34:09.934Z,7804
2016-05-16T13:35:09.906Z,9240